sensor_id;sensor_type;location;lat;lon;timestamp;P1;durP1;ratioP1;P2;durP2;ratioP2
29854;SDS011;16733;48.738;9.106;2023-09-19T00:01:12;1.15;;;0.50;;
29854;SDS011;16733;48.738;9.106;2023-09-19T00:03:39;0.95;;;0.60;;
29854;SDS011;16733;48.738;9.106;2023-09-19T00:06:07;0.82;;;0.68;;
29854;SDS011;16733;48.738;9.106;2023-09-19T00:08:34;1.30;;;0.70;;
29854;SDS011;16733;48.738;9.106;2023-09-19T00:11:00;2.20;;;0.68;;
29854;SDS011;16733;48.738;9.106;2023-09-19T00:13:28;0.90;;;0.50;;
29854;SDS011;16733;48.738;9.106;2023-09-19T00:15:54;0.65;;;0.57;;
29854;SDS011;16733;48.738;9.106;2023-09-19T00:18:20;2.33;;;0.70;;
29854;SDS011;16733;48.738;9.106;2023-09-19T00:20:46;4.07;;;0.80;;
29854;SDS011;16733;48.738;9.106;2023-09-19T00:23:14;2.28;;;0.50;;
29854;SDS011;16733;48.738;9.106;2023-09-19T00:25:40;1.73;;;0.60;;
29854;SDS011;16733;48.738;9.106;2023-09-19T00:28:07;2.70;;;0.55;;
29854;SDS011;16733;48.738;9.106;2023-09-19T00:30:33;1.15;;;0.70;;
29854;SDS011;16733;48.738;9.106;2023-09-19T00:32:59;1.05;;;0.60;;
29854;SDS011;16733;48.738;9.106;2023-09-19T00:35:27;0.68;;;0.40;;
29854;SDS011;16733;48.738;9.106;2023-09-19T00:37:53;1.08;;;0.70;;
29854;SDS011;16733;48.738;9.106;2023-09-19T00:40:19;1.45;;;0.40;;
29854;SDS011;16733;48.738;9.106;2023-09-19T00:42:46;1.95;;;0.68;;
29854;SDS011;16733;48.738;9.106;2023-09-19T00:45:14;3.03;;;0.50;;
29854;SDS011;16733;48.738;9.106;2023-09-19T00:47:42;1.67;;;0.90;;
29854;SDS011;16733;48.738;9.106;2023-09-19T00:50:09;1.13;;;0.50;;
29854;SDS011;16733;48.738;9.106;2023-09-19T00:52:36;2.83;;;0.50;;
29854;SDS011;16733;48.738;9.106;2023-09-19T00:55:06;1.38;;;0.50;;
29854;SDS011;16733;48.738;9.106;2023-09-19T00:57:33;2.92;;;0.80;;
29854;SDS011;16733;48.738;9.106;2023-09-19T00:59:59;2.05;;;0.63;;
29854;SDS011;16733;48.738;9.106;2023-09-19T01:02:30;0.90;;;0.70;;
29854;SDS011;16733;48.738;9.106;2023-09-19T01:04:56;2.30;;;0.70;;
29854;SDS011;16733;48.738;9.106;2023-09-19T01:07:23;1.00;;;0.70;;
29854;SDS011;16733;48.738;9.106;2023-09-19T01:09:49;2.92;;;0.77;;
29854;SDS011;16733;48.738;9.106;2023-09-19T01:12:17;1.38;;;0.50;;
29854;SDS011;16733;48.738;9.106;2023-09-19T01:14:54;0.93;;;0.50;;
29854;SDS011;16733;48.738;9.106;2023-09-19T01:17:37;1.33;;;0.50;;
29854;SDS011;16733;48.738;9.106;2023-09-19T01:23:00;0.50;;;0.50;;
29854;SDS011;16733;48.738;9.106;2023-09-19T01:28:20;0.95;;;0.57;;
29854;SDS011;16733;48.738;9.106;2023-09-19T01:30:49;0.65;;;0.50;;
29854;SDS011;16733;48.738;9.106;2023-09-19T01:33:19;1.88;;;0.60;;
29854;SDS011;16733;48.738;9.106;2023-09-19T01:35:45;1.20;;;0.52;;
29854;SDS011;16733;48.738;9.106;2023-09-19T01:38:12;1.30;;;0.60;;
29854;SDS011;16733;48.738;9.106;2023-09-19T01:40:43;2.58;;;0.70;;
29854;SDS011;16733;48.738;9.106;2023-09-19T01:48:50;0.95;;;0.40;;
29854;SDS011;16733;48.738;9.106;2023-09-19T01:52:07;2.22;;;0.45;;
29854;SDS011;16733;48.738;9.106;2023-09-19T01:54:10;3.25;;;0.68;;
29854;SDS011;16733;48.738;9.106;2023-09-19T01:56:42;1.42;;;0.50;;
29854;SDS011;16733;48.738;9.106;2023-09-19T01:59:15;1.90;;;0.45;;
29854;SDS011;16733;48.738;9.106;2023-09-19T02:01:42;0.52;;;0.50;;
29854;SDS011;16733;48.738;9.106;2023-09-19T02:04:10;0.90;;;0.55;;
29854;SDS011;16733;48.738;9.106;2023-09-19T02:06:39;1.02;;;0.50;;
29854;SDS011;16733;48.738;9.106;2023-09-19T02:09:06;4.15;;;0.60;;
29854;SDS011;16733;48.738;9.106;2023-09-19T02:11:32;1.23;;;0.70;;
29854;SDS011;16733;48.738;9.106;2023-09-19T02:13:58;5.13;;;0.60;;
29854;SDS011;16733;48.738;9.106;2023-09-19T02:16:24;3.78;;;1.05;;
29854;SDS011;16733;48.738;9.106;2023-09-19T02:18:50;3.05;;;0.85;;
29854;SDS011;16733;48.738;9.106;2023-09-19T02:21:16;2.05;;;0.63;;
29854;SDS011;16733;48.738;9.106;2023-09-19T02:23:43;1.20;;;0.60;;
29854;SDS011;16733;48.738;9.106;2023-09-19T02:26:09;1.95;;;0.50;;
29854;SDS011;16733;48.738;9.106;2023-09-19T02:28:37;2.78;;;0.80;;
29854;SDS011;16733;48.738;9.106;2023-09-19T02:31:03;1.75;;;0.30;;
29854;SDS011;16733;48.738;9.106;2023-09-19T02:33:30;1.98;;;0.60;;
29854;SDS011;16733;48.738;9.106;2023-09-19T02:35:57;1.10;;;0.60;;
29854;SDS011;16733;48.738;9.106;2023-09-19T02:38:24;0.35;;;0.32;;
29854;SDS011;16733;48.738;9.106;2023-09-19T02:40:51;1.08;;;0.60;;
29854;SDS011;16733;48.738;9.106;2023-09-19T02:43:17;1.88;;;0.55;;
29854;SDS011;16733;48.738;9.106;2023-09-19T02:45:44;0.77;;;0.45;;
29854;SDS011;16733;48.738;9.106;2023-09-19T02:48:11;2.33;;;0.80;;
29854;SDS011;16733;48.738;9.106;2023-09-19T02:50:37;2.17;;;0.60;;
29854;SDS011;16733;48.738;9.106;2023-09-19T02:53:05;0.90;;;0.50;;
29854;SDS011;16733;48.738;9.106;2023-09-19T02:55:31;2.75;;;0.98;;
29854;SDS011;16733;48.738;9.106;2023-09-19T02:57:57;1.80;;;0.70;;
29854;SDS011;16733;48.738;9.106;2023-09-19T03:00:24;1.30;;;0.60;;
29854;SDS011;16733;48.738;9.106;2023-09-19T03:02:50;1.10;;;0.65;;
29854;SDS011;16733;48.738;9.106;2023-09-19T03:05:16;1.85;;;0.70;;
29854;SDS011;16733;48.738;9.106;2023-09-19T03:07:43;1.20;;;0.80;;
29854;SDS011;16733;48.738;9.106;2023-09-19T03:10:10;2.95;;;0.63;;
29854;SDS011;16733;48.738;9.106;2023-09-19T03:12:37;1.48;;;0.80;;
29854;SDS011;16733;48.738;9.106;2023-09-19T03:15:04;0.82;;;0.60;;
29854;SDS011;16733;48.738;9.106;2023-09-19T03:17:30;2.60;;;0.70;;
29854;SDS011;16733;48.738;9.106;2023-09-19T03:19:57;1.50;;;0.73;;
29854;SDS011;16733;48.738;9.106;2023-09-19T03:22:23;0.98;;;0.68;;
29854;SDS011;16733;48.738;9.106;2023-09-19T03:24:50;4.68;;;0.73;;
29854;SDS011;16733;48.738;9.106;2023-09-19T03:27:16;1.75;;;0.70;;
29854;SDS011;16733;48.738;9.106;2023-09-19T03:29:42;1.05;;;0.75;;
29854;SDS011;16733;48.738;9.106;2023-09-19T03:32:08;1.02;;;0.60;;
29854;SDS011;16733;48.738;9.106;2023-09-19T03:34:37;1.85;;;0.70;;
29854;SDS011;16733;48.738;9.106;2023-09-19T03:37:07;1.20;;;0.50;;
29854;SDS011;16733;48.738;9.106;2023-09-19T03:39:34;2.35;;;0.75;;
29854;SDS011;16733;48.738;9.106;2023-09-19T03:42:00;1.13;;;0.60;;
29854;SDS011;16733;48.738;9.106;2023-09-19T03:44:30;1.15;;;0.70;;
29854;SDS011;16733;48.738;9.106;2023-09-19T03:46:56;1.35;;;0.70;;
29854;SDS011;16733;48.738;9.106;2023-09-19T03:49:22;1.77;;;0.80;;
29854;SDS011;16733;48.738;9.106;2023-09-19T03:51:48;0.93;;;0.73;;
29854;SDS011;16733;48.738;9.106;2023-09-19T03:54:14;3.20;;;1.00;;
29854;SDS011;16733;48.738;9.106;2023-09-19T03:56:42;3.15;;;0.70;;
29854;SDS011;16733;48.738;9.106;2023-09-19T03:59:09;1.15;;;0.75;;
29854;SDS011;16733;48.738;9.106;2023-09-19T04:01:35;1.52;;;0.63;;
29854;SDS011;16733;48.738;9.106;2023-09-19T04:04:02;1.42;;;0.68;;
29854;SDS011;16733;48.738;9.106;2023-09-19T04:06:36;3.13;;;0.68;;
29854;SDS011;16733;48.738;9.106;2023-09-19T04:09:02;4.78;;;0.77;;
29854;SDS011;16733;48.738;9.106;2023-09-19T04:11:29;2.22;;;0.82;;
29854;SDS011;16733;48.738;9.106;2023-09-19T04:13:55;3.33;;;0.68;;
29854;SDS011;16733;48.738;9.106;2023-09-19T04:16:21;1.55;;;0.63;;
29854;SDS011;16733;48.738;9.106;2023-09-19T04:18:47;2.13;;;0.80;;
29854;SDS011;16733;48.738;9.106;2023-09-19T04:21:13;1.20;;;0.63;;
29854;SDS011;16733;48.738;9.106;2023-09-19T04:23:39;3.03;;;0.68;;
29854;SDS011;16733;48.738;9.106;2023-09-19T04:26:05;3.58;;;0.70;;
29854;SDS011;16733;48.738;9.106;2023-09-19T04:28:32;3.50;;;0.80;;
29854;SDS011;16733;48.738;9.106;2023-09-19T04:30:59;2.58;;;0.98;;
29854;SDS011;16733;48.738;9.106;2023-09-19T04:33:25;4.20;;;0.85;;
29854;SDS011;16733;48.738;9.106;2023-09-19T04:35:52;1.77;;;0.65;;
29854;SDS011;16733;48.738;9.106;2023-09-19T04:38:18;1.92;;;0.85;;
29854;SDS011;16733;48.738;9.106;2023-09-19T04:40:45;1.48;;;0.98;;
29854;SDS011;16733;48.738;9.106;2023-09-19T04:43:11;1.00;;;0.70;;
29854;SDS011;16733;48.738;9.106;2023-09-19T04:45:38;2.15;;;0.70;;
29854;SDS011;16733;48.738;9.106;2023-09-19T04:48:04;0.80;;;0.50;;
29854;SDS011;16733;48.738;9.106;2023-09-19T04:50:33;3.08;;;0.60;;
29854;SDS011;16733;48.738;9.106;2023-09-19T04:53:00;1.70;;;0.70;;
29854;SDS011;16733;48.738;9.106;2023-09-19T04:55:26;1.35;;;0.70;;
29854;SDS011;16733;48.738;9.106;2023-09-19T04:57:52;1.17;;;0.60;;
29854;SDS011;16733;48.738;9.106;2023-09-19T05:00:22;2.33;;;0.70;;
29854;SDS011;16733;48.738;9.106;2023-09-19T05:02:54;1.83;;;0.70;;
29854;SDS011;16733;48.738;9.106;2023-09-19T05:05:24;3.35;;;0.63;;
29854;SDS011;16733;48.738;9.106;2023-09-19T05:07:51;5.25;;;0.88;;
29854;SDS011;16733;48.738;9.106;2023-09-19T05:10:19;2.90;;;0.73;;
29854;SDS011;16733;48.738;9.106;2023-09-19T05:12:45;2.67;;;0.70;;
29854;SDS011;16733;48.738;9.106;2023-09-19T05:15:13;1.52;;;0.80;;
29854;SDS011;16733;48.738;9.106;2023-09-19T05:17:47;3.33;;;0.88;;
29854;SDS011;16733;48.738;9.106;2023-09-19T05:20:13;5.88;;;1.08;;
29854;SDS011;16733;48.738;9.106;2023-09-19T05:23:04;3.00;;;1.00;;
29854;SDS011;16733;48.738;9.106;2023-09-19T05:25:34;1.67;;;1.05;;
29854;SDS011;16733;48.738;9.106;2023-09-19T05:28:04;3.90;;;0.88;;
29854;SDS011;16733;48.738;9.106;2023-09-19T05:30:30;1.73;;;0.90;;
29854;SDS011;16733;48.738;9.106;2023-09-19T05:32:57;1.58;;;0.90;;
29854;SDS011;16733;48.738;9.106;2023-09-19T05:35:23;2.78;;;1.02;;
29854;SDS011;16733;48.738;9.106;2023-09-19T05:37:53;0.95;;;0.90;;
29854;SDS011;16733;48.738;9.106;2023-09-19T05:40:20;3.60;;;1.00;;
29854;SDS011;16733;48.738;9.106;2023-09-19T05:42:46;3.55;;;1.50;;
29854;SDS011;16733;48.738;9.106;2023-09-19T05:45:13;5.90;;;2.83;;
29854;SDS011;16733;48.738;9.106;2023-09-19T05:47:39;4.75;;;1.75;;
29854;SDS011;16733;48.738;9.106;2023-09-19T05:50:08;2.63;;;1.20;;
29854;SDS011;16733;48.738;9.106;2023-09-19T05:52:35;2.00;;;1.30;;
29854;SDS011;16733;48.738;9.106;2023-09-19T05:55:02;5.72;;;1.50;;
29854;SDS011;16733;48.738;9.106;2023-09-19T05:57:30;0.20;;;0.20;;
29854;SDS011;16733;48.738;9.106;2023-09-19T05:59:56;0.43;;;0.30;;
29854;SDS011;16733;48.738;9.106;2023-09-19T06:02:22;0.10;;;0.10;;
29854;SDS011;16733;48.738;9.106;2023-09-19T06:04:48;0.10;;;0.10;;
29854;SDS011;16733;48.738;9.106;2023-09-19T06:07:14;0.10;;;0.10;;
29854;SDS011;16733;48.738;9.106;2023-09-19T06:09:41;0.10;;;0.10;;
29854;SDS011;16733;48.738;9.106;2023-09-19T06:12:07;0.10;;;0.10;;
29854;SDS011;16733;48.738;9.106;2023-09-19T06:14:33;0.10;;;0.10;;
29854;SDS011;16733;48.738;9.106;2023-09-19T06:16:59;0.10;;;0.10;;
29854;SDS011;16733;48.738;9.106;2023-09-19T06:19:25;0.10;;;0.10;;
29854;SDS011;16733;48.738;9.106;2023-09-19T06:21:52;0.10;;;0.10;;
29854;SDS011;16733;48.738;9.106;2023-09-19T06:24:19;0.10;;;0.10;;
29854;SDS011;16733;48.738;9.106;2023-09-19T06:26:46;0.10;;;0.10;;
29854;SDS011;16733;48.738;9.106;2023-09-19T06:29:12;0.10;;;0.10;;
29854;SDS011;16733;48.738;9.106;2023-09-19T06:31:39;0.10;;;0.10;;
29854;SDS011;16733;48.738;9.106;2023-09-19T06:34:05;0.10;;;0.10;;
29854;SDS011;16733;48.738;9.106;2023-09-19T06:36:32;0.05;;;0.05;;
29854;SDS011;16733;48.738;9.106;2023-09-19T06:38:58;0.10;;;0.10;;
29854;SDS011;16733;48.738;9.106;2023-09-19T06:41:24;0.10;;;0.10;;
29854;SDS011;16733;48.738;9.106;2023-09-19T06:43:50;0.10;;;0.10;;
29854;SDS011;16733;48.738;9.106;2023-09-19T06:46:18;0.10;;;0.10;;
29854;SDS011;16733;48.738;9.106;2023-09-19T06:48:44;0.10;;;0.10;;
29854;SDS011;16733;48.738;9.106;2023-09-19T06:51:12;0.00;;;0.00;;
29854;SDS011;16733;48.738;9.106;2023-09-19T06:53:40;0.10;;;0.10;;
29854;SDS011;16733;48.738;9.106;2023-09-19T06:56:06;0.10;;;0.10;;
29854;SDS011;16733;48.738;9.106;2023-09-19T06:58:35;0.10;;;0.10;;
29854;SDS011;16733;48.738;9.106;2023-09-19T07:01:02;0.10;;;0.10;;
29854;SDS011;16733;48.738;9.106;2023-09-19T07:03:28;0.10;;;0.10;;
29854;SDS011;16733;48.738;9.106;2023-09-19T07:05:54;0.10;;;0.10;;
29854;SDS011;16733;48.738;9.106;2023-09-19T07:08:21;0.03;;;0.03;;
29854;SDS011;16733;48.738;9.106;2023-09-19T07:10:47;0.10;;;0.10;;
29854;SDS011;16733;48.738;9.106;2023-09-19T07:13:13;0.03;;;0.03;;
29854;SDS011;16733;48.738;9.106;2023-09-19T07:15:41;0.03;;;0.03;;
29854;SDS011;16733;48.738;9.106;2023-09-19T07:18:12;0.10;;;0.10;;
29854;SDS011;16733;48.738;9.106;2023-09-19T07:20:39;0.10;;;0.10;;
29854;SDS011;16733;48.738;9.106;2023-09-19T07:23:10;0.10;;;0.10;;
29854;SDS011;16733;48.738;9.106;2023-09-19T07:25:38;0.10;;;0.10;;
29854;SDS011;16733;48.738;9.106;2023-09-19T07:28:05;0.08;;;0.08;;
29854;SDS011;16733;48.738;9.106;2023-09-19T07:30:31;0.10;;;0.10;;
29854;SDS011;16733;48.738;9.106;2023-09-19T07:32:57;0.10;;;0.10;;
29854;SDS011;16733;48.738;9.106;2023-09-19T07:35:23;0.20;;;0.20;;
29854;SDS011;16733;48.738;9.106;2023-09-19T07:37:50;0.00;;;0.00;;
29854;SDS011;16733;48.738;9.106;2023-09-19T07:40:16;2.80;;;0.10;;
29854;SDS011;16733;48.738;9.106;2023-09-19T07:42:42;0.00;;;0.00;;
29854;SDS011;16733;48.738;9.106;2023-09-19T07:45:09;0.10;;;0.10;;
29854;SDS011;16733;48.738;9.106;2023-09-19T07:47:49;0.10;;;0.10;;
29854;SDS011;16733;48.738;9.106;2023-09-19T07:50:15;0.00;;;0.00;;
29854;SDS011;16733;48.738;9.106;2023-09-19T07:52:43;0.00;;;0.00;;
29854;SDS011;16733;48.738;9.106;2023-09-19T07:55:09;0.03;;;0.03;;
29854;SDS011;16733;48.738;9.106;2023-09-19T07:57:45;0.10;;;0.10;;
29854;SDS011;16733;48.738;9.106;2023-09-19T08:00:11;0.10;;;0.10;;
29854;SDS011;16733;48.738;9.106;2023-09-19T08:02:41;0.00;;;0.00;;
29854;SDS011;16733;48.738;9.106;2023-09-19T08:05:08;0.10;;;0.10;;
29854;SDS011;16733;48.738;9.106;2023-09-19T08:07:41;0.10;;;0.10;;
29854;SDS011;16733;48.738;9.106;2023-09-19T08:10:07;0.10;;;0.10;;
29854;SDS011;16733;48.738;9.106;2023-09-19T08:12:37;0.10;;;0.10;;
29854;SDS011;16733;48.738;9.106;2023-09-19T08:15:11;0.10;;;0.10;;
29854;SDS011;16733;48.738;9.106;2023-09-19T08:17:37;0.17;;;0.17;;
29854;SDS011;16733;48.738;9.106;2023-09-19T08:20:03;0.00;;;0.00;;
29854;SDS011;16733;48.738;9.106;2023-09-19T08:22:30;0.10;;;0.10;;
29854;SDS011;16733;48.738;9.106;2023-09-19T08:24:57;0.00;;;0.00;;
29854;SDS011;16733;48.738;9.106;2023-09-19T08:27:23;0.00;;;0.00;;
29854;SDS011;16733;48.738;9.106;2023-09-19T08:29:52;0.10;;;0.10;;
29854;SDS011;16733;48.738;9.106;2023-09-19T08:32:18;0.00;;;0.00;;
29854;SDS011;16733;48.738;9.106;2023-09-19T08:34:49;0.00;;;0.00;;
29854;SDS011;16733;48.738;9.106;2023-09-19T08:37:15;0.00;;;0.00;;
29854;SDS011;16733;48.738;9.106;2023-09-19T08:39:43;0.00;;;0.00;;
29854;SDS011;16733;48.738;9.106;2023-09-19T08:42:09;0.10;;;0.10;;
29854;SDS011;16733;48.738;9.106;2023-09-19T08:44:37;0.00;;;0.00;;
29854;SDS011;16733;48.738;9.106;2023-09-19T08:47:14;0.10;;;0.10;;
29854;SDS011;16733;48.738;9.106;2023-09-19T08:52:20;0.00;;;0.00;;
29854;SDS011;16733;48.738;9.106;2023-09-19T08:54:46;0.00;;;0.00;;
29854;SDS011;16733;48.738;9.106;2023-09-19T08:57:14;0.00;;;0.00;;
29854;SDS011;16733;48.738;9.106;2023-09-19T08:59:46;0.10;;;0.10;;
29854;SDS011;16733;48.738;9.106;2023-09-19T09:02:13;0.00;;;0.00;;
29854;SDS011;16733;48.738;9.106;2023-09-19T09:04:40;0.10;;;0.10;;
29854;SDS011;16733;48.738;9.106;2023-09-19T09:07:16;0.00;;;0.00;;
29854;SDS011;16733;48.738;9.106;2023-09-19T09:09:44;0.00;;;0.00;;
29854;SDS011;16733;48.738;9.106;2023-09-19T09:12:11;0.00;;;0.00;;
29854;SDS011;16733;48.738;9.106;2023-09-19T09:14:38;0.00;;;0.00;;
29854;SDS011;16733;48.738;9.106;2023-09-19T09:17:04;0.00;;;0.00;;
29854;SDS011;16733;48.738;9.106;2023-09-19T09:19:30;0.00;;;0.00;;
29854;SDS011;16733;48.738;9.106;2023-09-19T09:22:09;0.10;;;0.10;;
29854;SDS011;16733;48.738;9.106;2023-09-19T09:24:36;2.38;;;0.90;;
29854;SDS011;16733;48.738;9.106;2023-09-19T09:27:04;1.33;;;0.93;;
29854;SDS011;16733;48.738;9.106;2023-09-19T09:29:48;4.88;;;1.13;;
29854;SDS011;16733;48.738;9.106;2023-09-19T09:34:45;1.73;;;0.80;;
29854;SDS011;16733;48.738;9.106;2023-09-19T09:37:14;4.97;;;0.98;;
29854;SDS011;16733;48.738;9.106;2023-09-19T09:39:40;1.45;;;0.85;;
29854;SDS011;16733;48.738;9.106;2023-09-19T09:42:37;0.93;;;0.70;;
29854;SDS011;16733;48.738;9.106;2023-09-19T09:45:12;2.55;;;1.00;;
29854;SDS011;16733;48.738;9.106;2023-09-19T09:47:43;2.42;;;1.02;;
29854;SDS011;16733;48.738;9.106;2023-09-19T09:50:23;3.05;;;0.93;;
29854;SDS011;16733;48.738;9.106;2023-09-19T09:52:54;1.65;;;0.75;;
29854;SDS011;16733;48.738;9.106;2023-09-19T09:55:27;2.00;;;0.70;;
29854;SDS011;16733;48.738;9.106;2023-09-19T10:00:51;2.25;;;0.77;;
29854;SDS011;16733;48.738;9.106;2023-09-19T10:03:24;4.30;;;1.13;;
29854;SDS011;16733;48.738;9.106;2023-09-19T10:05:57;1.10;;;0.70;;
29854;SDS011;16733;48.738;9.106;2023-09-19T10:08:34;1.15;;;0.75;;
29854;SDS011;16733;48.738;9.106;2023-09-19T10:11:01;1.05;;;0.68;;
29854;SDS011;16733;48.738;9.106;2023-09-19T10:13:40;1.63;;;0.80;;
29854;SDS011;16733;48.738;9.106;2023-09-19T10:16:07;1.63;;;0.90;;
29854;SDS011;16733;48.738;9.106;2023-09-19T10:18:36;1.80;;;0.90;;
29854;SDS011;16733;48.738;9.106;2023-09-19T10:21:04;2.58;;;0.77;;
29854;SDS011;16733;48.738;9.106;2023-09-19T10:23:32;2.22;;;0.60;;
29854;SDS011;16733;48.738;9.106;2023-09-19T10:25:59;1.10;;;0.60;;
29854;SDS011;16733;48.738;9.106;2023-09-19T10:28:27;3.17;;;0.70;;
29854;SDS011;16733;48.738;9.106;2023-09-19T10:30:55;4.57;;;0.77;;
29854;SDS011;16733;48.738;9.106;2023-09-19T10:33:24;2.28;;;1.10;;
29854;SDS011;16733;48.738;9.106;2023-09-19T10:35:55;1.48;;;0.88;;
29854;SDS011;16733;48.738;9.106;2023-09-19T10:38:23;2.05;;;0.70;;
29854;SDS011;16733;48.738;9.106;2023-09-19T10:40:53;1.70;;;0.60;;
29854;SDS011;16733;48.738;9.106;2023-09-19T10:43:20;0.90;;;0.60;;
29854;SDS011;16733;48.738;9.106;2023-09-19T10:45:47;1.45;;;0.77;;
29854;SDS011;16733;48.738;9.106;2023-09-19T10:48:17;1.85;;;0.80;;
29854;SDS011;16733;48.738;9.106;2023-09-19T10:51:05;3.08;;;0.80;;
29854;SDS011;16733;48.738;9.106;2023-09-19T10:53:43;0.68;;;0.50;;
29854;SDS011;16733;48.738;9.106;2023-09-19T10:56:11;2.03;;;0.73;;
29854;SDS011;16733;48.738;9.106;2023-09-19T10:58:42;1.85;;;0.70;;
29854;SDS011;16733;48.738;9.106;2023-09-19T11:01:10;1.20;;;0.77;;
29854;SDS011;16733;48.738;9.106;2023-09-19T11:03:40;2.15;;;0.68;;
29854;SDS011;16733;48.738;9.106;2023-09-19T11:06:18;2.00;;;0.65;;
29854;SDS011;16733;48.738;9.106;2023-09-19T11:14:16;2.30;;;0.77;;
29854;SDS011;16733;48.738;9.106;2023-09-19T11:22:18;3.05;;;0.57;;
29854;SDS011;16733;48.738;9.106;2023-09-19T11:24:47;1.38;;;0.50;;
29854;SDS011;16733;48.738;9.106;2023-09-19T11:27:14;1.45;;;0.68;;
29854;SDS011;16733;48.738;9.106;2023-09-19T11:29:43;3.08;;;0.47;;
29854;SDS011;16733;48.738;9.106;2023-09-19T11:32:09;0.93;;;0.50;;
29854;SDS011;16733;48.738;9.106;2023-09-19T11:34:44;0.85;;;0.60;;
29854;SDS011;16733;48.738;9.106;2023-09-19T11:47:34;1.10;;;0.90;;
29854;SDS011;16733;48.738;9.106;2023-09-19T11:50:01;1.48;;;0.60;;
29854;SDS011;16733;48.738;9.106;2023-09-19T11:52:27;1.90;;;0.60;;
29854;SDS011;16733;48.738;9.106;2023-09-19T11:54:59;2.88;;;0.50;;
29854;SDS011;16733;48.738;9.106;2023-09-19T11:57:27;1.20;;;0.60;;
29854;SDS011;16733;48.738;9.106;2023-09-19T11:59:55;1.42;;;0.43;;
29854;SDS011;16733;48.738;9.106;2023-09-19T12:02:38;0.88;;;0.50;;
29854;SDS011;16733;48.738;9.106;2023-09-19T12:05:05;1.15;;;0.50;;
29854;SDS011;16733;48.738;9.106;2023-09-19T12:07:32;1.08;;;0.40;;
29854;SDS011;16733;48.738;9.106;2023-09-19T12:10:08;1.88;;;0.60;;
29854;SDS011;16733;48.738;9.106;2023-09-19T12:12:36;2.63;;;0.70;;
29854;SDS011;16733;48.738;9.106;2023-09-19T12:15:02;3.03;;;0.52;;
29854;SDS011;16733;48.738;9.106;2023-09-19T12:17:38;1.60;;;0.50;;
29854;SDS011;16733;48.738;9.106;2023-09-19T12:20:06;1.65;;;0.70;;
29854;SDS011;16733;48.738;9.106;2023-09-19T12:22:45;2.17;;;0.50;;
29854;SDS011;16733;48.738;9.106;2023-09-19T12:25:15;2.28;;;0.80;;
29854;SDS011;16733;48.738;9.106;2023-09-19T12:27:47;1.50;;;0.50;;
29854;SDS011;16733;48.738;9.106;2023-09-19T12:30:18;2.30;;;0.60;;
29854;SDS011;16733;48.738;9.106;2023-09-19T12:32:45;2.28;;;0.68;;
29854;SDS011;16733;48.738;9.106;2023-09-19T12:35:29;4.70;;;0.82;;
29854;SDS011;16733;48.738;9.106;2023-09-19T12:37:59;0.52;;;0.50;;
29854;SDS011;16733;48.738;9.106;2023-09-19T12:40:25;2.58;;;0.80;;
29854;SDS011;16733;48.738;9.106;2023-09-19T12:42:58;1.92;;;0.75;;
29854;SDS011;16733;48.738;9.106;2023-09-19T12:45:24;1.48;;;0.40;;
29854;SDS011;16733;48.738;9.106;2023-09-19T12:50:36;1.05;;;0.60;;
29854;SDS011;16733;48.738;9.106;2023-09-19T12:53:26;1.73;;;0.70;;
29854;SDS011;16733;48.738;9.106;2023-09-19T12:55:58;3.90;;;1.17;;
29854;SDS011;16733;48.738;9.106;2023-09-19T12:58:24;2.38;;;0.80;;
29854;SDS011;16733;48.738;9.106;2023-09-19T13:00:50;4.20;;;0.60;;
29854;SDS011;16733;48.738;9.106;2023-09-19T13:05:59;9.52;;;0.77;;
29854;SDS011;16733;48.738;9.106;2023-09-19T13:08:28;1.35;;;0.50;;
29854;SDS011;16733;48.738;9.106;2023-09-19T13:11:14;3.33;;;0.65;;
29854;SDS011;16733;48.738;9.106;2023-09-19T13:16:29;4.38;;;0.70;;
29854;SDS011;16733;48.738;9.106;2023-09-19T13:18:55;5.18;;;0.80;;
29854;SDS011;16733;48.738;9.106;2023-09-19T13:21:27;0.57;;;0.40;;
29854;SDS011;16733;48.738;9.106;2023-09-19T13:23:54;1.00;;;0.75;;
29854;SDS011;16733;48.738;9.106;2023-09-19T13:26:24;1.80;;;0.60;;
29854;SDS011;16733;48.738;9.106;2023-09-19T13:28:51;1.77;;;0.70;;
29854;SDS011;16733;48.738;9.106;2023-09-19T13:31:17;1.65;;;0.52;;
29854;SDS011;16733;48.738;9.106;2023-09-19T13:33:47;1.17;;;0.77;;
29854;SDS011;16733;48.738;9.106;2023-09-19T13:36:13;2.03;;;1.08;;
29854;SDS011;16733;48.738;9.106;2023-09-19T13:38:42;2.50;;;0.90;;
29854;SDS011;16733;48.738;9.106;2023-09-19T13:41:09;1.63;;;0.57;;
29854;SDS011;16733;48.738;9.106;2023-09-19T13:43:36;1.35;;;0.43;;
29854;SDS011;16733;48.738;9.106;2023-09-19T13:46:02;2.85;;;0.88;;
29854;SDS011;16733;48.738;9.106;2023-09-19T13:48:28;0.88;;;0.50;;
29854;SDS011;16733;48.738;9.106;2023-09-19T13:50:55;2.05;;;0.80;;
29854;SDS011;16733;48.738;9.106;2023-09-19T13:53:21;1.67;;;0.57;;
29854;SDS011;16733;48.738;9.106;2023-09-19T13:55:47;5.82;;;0.50;;
29854;SDS011;16733;48.738;9.106;2023-09-19T13:58:16;0.93;;;0.55;;
29854;SDS011;16733;48.738;9.106;2023-09-19T14:00:42;1.60;;;0.70;;
29854;SDS011;16733;48.738;9.106;2023-09-19T14:03:08;1.05;;;0.60;;
29854;SDS011;16733;48.738;9.106;2023-09-19T14:05:35;2.70;;;0.70;;
29854;SDS011;16733;48.738;9.106;2023-09-19T14:08:02;2.05;;;0.57;;
29854;SDS011;16733;48.738;9.106;2023-09-19T14:10:28;1.60;;;1.00;;
29854;SDS011;16733;48.738;9.106;2023-09-19T14:12:56;1.15;;;0.75;;
29854;SDS011;16733;48.738;9.106;2023-09-19T14:15:24;9.30;;;1.00;;
29854;SDS011;16733;48.738;9.106;2023-09-19T14:17:55;1.10;;;0.60;;
29854;SDS011;16733;48.738;9.106;2023-09-19T14:20:21;0.93;;;0.60;;
29854;SDS011;16733;48.738;9.106;2023-09-19T14:22:48;1.20;;;0.40;;
29854;SDS011;16733;48.738;9.106;2023-09-19T14:25:14;3.35;;;0.50;;
29854;SDS011;16733;48.738;9.106;2023-09-19T14:27:40;2.20;;;0.60;;
29854;SDS011;16733;48.738;9.106;2023-09-19T14:30:07;2.47;;;0.65;;
29854;SDS011;16733;48.738;9.106;2023-09-19T14:32:34;1.15;;;0.70;;
29854;SDS011;16733;48.738;9.106;2023-09-19T14:35:01;1.17;;;0.63;;
29854;SDS011;16733;48.738;9.106;2023-09-19T14:37:27;1.88;;;0.57;;
29854;SDS011;16733;48.738;9.106;2023-09-19T14:39:53;1.02;;;0.93;;
29854;SDS011;16733;48.738;9.106;2023-09-19T14:42:19;8.77;;;1.25;;
29854;SDS011;16733;48.738;9.106;2023-09-19T14:44:49;1.65;;;0.55;;
29854;SDS011;16733;48.738;9.106;2023-09-19T14:47:15;2.38;;;0.60;;
29854;SDS011;16733;48.738;9.106;2023-09-19T14:49:41;1.25;;;0.70;;
29854;SDS011;16733;48.738;9.106;2023-09-19T14:52:08;5.20;;;0.88;;
29854;SDS011;16733;48.738;9.106;2023-09-19T14:54:35;9.20;;;0.80;;
29854;SDS011;16733;48.738;9.106;2023-09-19T14:57:03;1.00;;;0.60;;
29854;SDS011;16733;48.738;9.106;2023-09-19T14:59:32;2.00;;;0.82;;
29854;SDS011;16733;48.738;9.106;2023-09-19T15:02:04;1.70;;;0.68;;
29854;SDS011;16733;48.738;9.106;2023-09-19T15:04:31;0.73;;;0.45;;
29854;SDS011;16733;48.738;9.106;2023-09-19T15:06:57;1.13;;;0.70;;
29854;SDS011;16733;48.738;9.106;2023-09-19T15:09:23;2.55;;;0.60;;
29854;SDS011;16733;48.738;9.106;2023-09-19T15:11:51;3.33;;;0.60;;
29854;SDS011;16733;48.738;9.106;2023-09-19T15:14:17;0.50;;;0.32;;
29854;SDS011;16733;48.738;9.106;2023-09-19T15:16:43;2.03;;;1.13;;
29854;SDS011;16733;48.738;9.106;2023-09-19T15:19:09;4.60;;;0.60;;
29854;SDS011;16733;48.738;9.106;2023-09-19T15:21:36;3.45;;;0.73;;
29854;SDS011;16733;48.738;9.106;2023-09-19T15:24:02;1.25;;;0.50;;
29854;SDS011;16733;48.738;9.106;2023-09-19T15:26:29;1.13;;;0.50;;
29854;SDS011;16733;48.738;9.106;2023-09-19T15:28:56;0.55;;;0.47;;
29854;SDS011;16733;48.738;9.106;2023-09-19T15:31:22;0.60;;;0.43;;
29854;SDS011;16733;48.738;9.106;2023-09-19T15:33:48;1.10;;;0.50;;
29854;SDS011;16733;48.738;9.106;2023-09-19T15:36:14;0.98;;;0.43;;
29854;SDS011;16733;48.738;9.106;2023-09-19T15:41:18;0.55;;;0.40;;
29854;SDS011;16733;48.738;9.106;2023-09-19T15:43:44;2.72;;;1.13;;
29854;SDS011;16733;48.738;9.106;2023-09-19T15:46:10;2.45;;;0.50;;